Aviation Digital Data Service (ADDS)

Output produced by METARs form (0606 UTC 19 March 2019)
found at http://www.aviationweather.gov/metar/data/
 
Forecast for: DNYO (YOLA , NG)
Text: TAF DNYO 182140Z 1900/2006 VRB02KT CAVOK
Forecast period: 0000 to 0600 UTC 19 March 2019
Forecast type: FROM: standard forecast or significant change
Winds: variable direction winds at 2 MPH (2 knots; 1.0 m/s)
Visibility: 6 or more miles 10+ km)
Ceiling: unknown
Clouds: missing
Weather: NSW  (no significant weather)
Text: BECMG 1906/1908 12009KT
Forecast period: 0600 UTC 19 March 2019 to 0600 UTC 20 March 2019
Forecast type: BECOMING: Conditions expected to become as follows by 0800 UTC 19 March 2019
Winds: from the ESE (120 degrees) at 10 MPH (9 knots; 4.6 m/s)
Visibility: 6 or more miles 10+ km)
Ceiling: unknown
Clouds: missing
Weather: NSW  (no significant weather)